sensor_id;sensor_type;location;lat;lon;timestamp;temperature;humidity
7077;DHT22;3579;48.956;9.154;2023-11-19T00:02:12;15.40;68.10
7077;DHT22;3579;48.956;9.154;2023-11-19T00:04:38;15.40;68.20
7077;DHT22;3579;48.956;9.154;2023-11-19T00:07:07;15.40;67.60
7077;DHT22;3579;48.956;9.154;2023-11-19T00:09:36;15.50;68.30
7077;DHT22;3579;48.956;9.154;2023-11-19T00:12:04;15.40;68.20
7077;DHT22;3579;48.956;9.154;2023-11-19T00:14:30;15.40;67.70
7077;DHT22;3579;48.956;9.154;2023-11-19T00:16:56;15.40;68.20
7077;DHT22;3579;48.956;9.154;2023-11-19T00:19:22;15.40;68.20
7077;DHT22;3579;48.956;9.154;2023-11-19T00:21:48;15.40;68.20
7077;DHT22;3579;48.956;9.154;2023-11-19T00:24:14;15.40;68.20
7077;DHT22;3579;48.956;9.154;2023-11-19T00:26:42;15.40;68.20
7077;DHT22;3579;48.956;9.154;2023-11-19T00:29:08;15.40;68.30
7077;DHT22;3579;48.956;9.154;2023-11-19T00:31:35;15.30;67.60
7077;DHT22;3579;48.956;9.154;2023-11-19T00:34:01;15.40;68.30
7077;DHT22;3579;48.956;9.154;2023-11-19T00:36:28;15.40;67.70
7077;DHT22;3579;48.956;9.154;2023-11-19T00:38:54;15.40;67.70
7077;DHT22;3579;48.956;9.154;2023-11-19T00:41:20;15.40;67.70
7077;DHT22;3579;48.956;9.154;2023-11-19T00:43:47;15.40;68.20
7077;DHT22;3579;48.956;9.154;2023-11-19T00:46:13;15.30;67.60
7077;DHT22;3579;48.956;9.154;2023-11-19T00:48:41;15.30;68.10
7077;DHT22;3579;48.956;9.154;2023-11-19T00:51:07;15.40;67.70
7077;DHT22;3579;48.956;9.154;2023-11-19T00:53:33;15.30;67.60
7077;DHT22;3579;48.956;9.154;2023-11-19T00:56:00;15.30;67.60
7077;DHT22;3579;48.956;9.154;2023-11-19T00:58:26;15.30;67.60
7077;DHT22;3579;48.956;9.154;2023-11-19T01:00:52;15.30;67.60
7077;DHT22;3579;48.956;9.154;2023-11-19T01:03:19;15.20;68.00
7077;DHT22;3579;48.956;9.154;2023-11-19T01:05:45;15.30;68.10
7077;DHT22;3579;48.956;9.154;2023-11-19T01:08:12;15.30;67.60
7077;DHT22;3579;48.956;9.154;2023-11-19T01:10:38;15.30;67.60
7077;DHT22;3579;48.956;9.154;2023-11-19T01:13:05;15.30;67.60
7077;DHT22;3579;48.956;9.154;2023-11-19T01:15:34;15.40;67.70
7077;DHT22;3579;48.956;9.154;2023-11-19T01:18:00;15.30;68.10
7077;DHT22;3579;48.956;9.154;2023-11-19T01:20:30;15.30;68.10
7077;DHT22;3579;48.956;9.154;2023-11-19T01:22:56;15.30;67.60
7077;DHT22;3579;48.956;9.154;2023-11-19T01:25:22;15.30;67.60
7077;DHT22;3579;48.956;9.154;2023-11-19T01:27:48;15.30;67.60
7077;DHT22;3579;48.956;9.154;2023-11-19T01:30:15;15.30;68.10
7077;DHT22;3579;48.956;9.154;2023-11-19T01:32:41;15.30;68.10
7077;DHT22;3579;48.956;9.154;2023-11-19T01:35:08;15.30;68.10
7077;DHT22;3579;48.956;9.154;2023-11-19T01:37:34;15.30;67.60
7077;DHT22;3579;48.956;9.154;2023-11-19T01:40:01;15.30;68.20
7077;DHT22;3579;48.956;9.154;2023-11-19T01:42:29;15.30;67.60
7077;DHT22;3579;48.956;9.154;2023-11-19T01:44:59;15.30;67.60
7077;DHT22;3579;48.956;9.154;2023-11-19T01:47:28;15.30;67.60
7077;DHT22;3579;48.956;9.154;2023-11-19T01:49:56;15.30;68.10
7077;DHT22;3579;48.956;9.154;2023-11-19T01:52:23;15.30;67.60
7077;DHT22;3579;48.956;9.154;2023-11-19T01:54:50;15.30;67.60
7077;DHT22;3579;48.956;9.154;2023-11-19T01:57:17;15.30;68.20
7077;DHT22;3579;48.956;9.154;2023-11-19T01:59:43;15.30;67.60
7077;DHT22;3579;48.956;9.154;2023-11-19T02:02:10;15.30;68.20
7077;DHT22;3579;48.956;9.154;2023-11-19T02:04:38;15.30;68.20
7077;DHT22;3579;48.956;9.154;2023-11-19T02:07:04;15.30;68.20
7077;DHT22;3579;48.956;9.154;2023-11-19T02:09:30;15.30;67.60
7077;DHT22;3579;48.956;9.154;2023-11-19T02:11:56;15.30;67.70
7077;DHT22;3579;48.956;9.154;2023-11-19T02:14:25;15.30;67.60
7077;DHT22;3579;48.956;9.154;2023-11-19T02:16:51;15.30;67.70
7077;DHT22;3579;48.956;9.154;2023-11-19T02:19:20;15.30;67.70
7077;DHT22;3579;48.956;9.154;2023-11-19T02:21:46;15.30;68.20
7077;DHT22;3579;48.956;9.154;2023-11-19T02:24:14;15.30;67.70
7077;DHT22;3579;48.956;9.154;2023-11-19T02:26:55;15.30;67.70
7077;DHT22;3579;48.956;9.154;2023-11-19T02:29:24;15.20;67.60
7077;DHT22;3579;48.956;9.154;2023-11-19T02:31:50;15.30;68.20
7077;DHT22;3579;48.956;9.154;2023-11-19T02:34:16;15.20;67.60
7077;DHT22;3579;48.956;9.154;2023-11-19T02:36:42;15.30;67.70
7077;DHT22;3579;48.956;9.154;2023-11-19T02:39:08;15.20;67.60
7077;DHT22;3579;48.956;9.154;2023-11-19T02:41:37;15.30;67.70
7077;DHT22;3579;48.956;9.154;2023-11-19T02:44:06;15.30;68.20
7077;DHT22;3579;48.956;9.154;2023-11-19T02:46:32;15.30;67.70
7077;DHT22;3579;48.956;9.154;2023-11-19T02:48:58;15.20;68.10
7077;DHT22;3579;48.956;9.154;2023-11-19T02:51:24;15.20;67.60
7077;DHT22;3579;48.956;9.154;2023-11-19T02:53:50;15.20;67.60
7077;DHT22;3579;48.956;9.154;2023-11-19T02:56:16;15.20;67.60
7077;DHT22;3579;48.956;9.154;2023-11-19T02:58:51;15.20;68.10
7077;DHT22;3579;48.956;9.154;2023-11-19T03:01:26;15.20;68.10
7077;DHT22;3579;48.956;9.154;2023-11-19T03:03:57;15.20;68.20
7077;DHT22;3579;48.956;9.154;2023-11-19T03:06:24;15.30;67.70
7077;DHT22;3579;48.956;9.154;2023-11-19T03:08:50;15.20;67.60
7077;DHT22;3579;48.956;9.154;2023-11-19T03:13:42;15.20;67.60
7077;DHT22;3579;48.956;9.154;2023-11-19T03:16:08;15.20;67.60
7077;DHT22;3579;48.956;9.154;2023-11-19T03:18:35;15.20;68.20
7077;DHT22;3579;48.956;9.154;2023-11-19T03:21:01;15.20;68.10
7077;DHT22;3579;48.956;9.154;2023-11-19T03:23:28;15.20;68.10
7077;DHT22;3579;48.956;9.154;2023-11-19T03:25:54;15.20;67.60
7077;DHT22;3579;48.956;9.154;2023-11-19T03:28:21;15.20;67.60
7077;DHT22;3579;48.956;9.154;2023-11-19T03:30:47;15.20;68.10
7077;DHT22;3579;48.956;9.154;2023-11-19T03:33:12;15.20;68.10
7077;DHT22;3579;48.956;9.154;2023-11-19T03:35:38;15.20;67.60
7077;DHT22;3579;48.956;9.154;2023-11-19T03:38:07;15.20;67.60
7077;DHT22;3579;48.956;9.154;2023-11-19T03:40:32;15.20;68.20
7077;DHT22;3579;48.956;9.154;2023-11-19T03:42:59;15.20;68.10
7077;DHT22;3579;48.956;9.154;2023-11-19T03:45:25;15.20;67.60
7077;DHT22;3579;48.956;9.154;2023-11-19T03:47:51;15.20;68.10
7077;DHT22;3579;48.956;9.154;2023-11-19T03:52:47;15.20;67.60
7077;DHT22;3579;48.956;9.154;2023-11-19T03:55:13;15.20;67.60
7077;DHT22;3579;48.956;9.154;2023-11-19T03:57:39;15.20;68.10
7077;DHT22;3579;48.956;9.154;2023-11-19T04:00:05;15.20;68.80
7077;DHT22;3579;48.956;9.154;2023-11-19T04:02:41;15.20;67.60
7077;DHT22;3579;48.956;9.154;2023-11-19T04:05:07;15.20;67.60
7077;DHT22;3579;48.956;9.154;2023-11-19T04:07:33;15.20;68.10
7077;DHT22;3579;48.956;9.154;2023-11-19T04:09:59;15.20;67.60
7077;DHT22;3579;48.956;9.154;2023-11-19T04:12:26;15.20;68.20
7077;DHT22;3579;48.956;9.154;2023-11-19T04:14:51;15.20;68.10
7077;DHT22;3579;48.956;9.154;2023-11-19T04:17:17;15.20;68.20
7077;DHT22;3579;48.956;9.154;2023-11-19T04:19:43;15.20;68.20
7077;DHT22;3579;48.956;9.154;2023-11-19T04:22:10;15.20;67.60
7077;DHT22;3579;48.956;9.154;2023-11-19T04:24:36;15.10;67.50
7077;DHT22;3579;48.956;9.154;2023-11-19T04:27:03;15.10;68.10
7077;DHT22;3579;48.956;9.154;2023-11-19T04:29:30;15.20;67.60
7077;DHT22;3579;48.956;9.154;2023-11-19T04:31:56;15.20;68.10
7077;DHT22;3579;48.956;9.154;2023-11-19T04:34:22;15.20;67.60
7077;DHT22;3579;48.956;9.154;2023-11-19T04:36:48;15.20;68.10
7077;DHT22;3579;48.956;9.154;2023-11-19T04:39:15;15.20;67.60
7077;DHT22;3579;48.956;9.154;2023-11-19T04:41:51;15.10;67.50
7077;DHT22;3579;48.956;9.154;2023-11-19T04:44:20;15.20;67.60
7077;DHT22;3579;48.956;9.154;2023-11-19T04:46:46;15.20;67.60
7077;DHT22;3579;48.956;9.154;2023-11-19T04:49:13;15.10;67.50
7077;DHT22;3579;48.956;9.154;2023-11-19T04:51:40;15.20;68.20
7077;DHT22;3579;48.956;9.154;2023-11-19T04:54:11;15.20;68.10
7077;DHT22;3579;48.956;9.154;2023-11-19T04:56:37;15.20;67.60
7077;DHT22;3579;48.956;9.154;2023-11-19T04:59:04;15.20;67.60
7077;DHT22;3579;48.956;9.154;2023-11-19T05:01:32;15.20;68.20
7077;DHT22;3579;48.956;9.154;2023-11-19T05:03:58;15.10;67.50
7077;DHT22;3579;48.956;9.154;2023-11-19T05:06:29;15.20;68.10
7077;DHT22;3579;48.956;9.154;2023-11-19T05:08:56;15.20;67.60
7077;DHT22;3579;48.956;9.154;2023-11-19T05:11:22;15.10;68.00
7077;DHT22;3579;48.956;9.154;2023-11-19T05:13:49;15.20;67.60
7077;DHT22;3579;48.956;9.154;2023-11-19T05:16:16;15.10;67.50
7077;DHT22;3579;48.956;9.154;2023-11-19T05:18:43;15.10;67.50
7077;DHT22;3579;48.956;9.154;2023-11-19T05:23:36;15.10;67.50
7077;DHT22;3579;48.956;9.154;2023-11-19T05:26:03;15.10;67.50
7077;DHT22;3579;48.956;9.154;2023-11-19T05:28:29;15.20;67.60
7077;DHT22;3579;48.956;9.154;2023-11-19T05:30:55;15.20;67.60
7077;DHT22;3579;48.956;9.154;2023-11-19T05:33:21;15.10;67.50
7077;DHT22;3579;48.956;9.154;2023-11-19T05:35:47;15.10;67.50
7077;DHT22;3579;48.956;9.154;2023-11-19T05:38:13;15.20;67.60
7077;DHT22;3579;48.956;9.154;2023-11-19T05:40:41;15.20;67.50
7077;DHT22;3579;48.956;9.154;2023-11-19T05:43:08;15.10;68.00
7077;DHT22;3579;48.956;9.154;2023-11-19T05:45:33;15.10;67.50
7077;DHT22;3579;48.956;9.154;2023-11-19T05:47:59;15.10;68.00
7077;DHT22;3579;48.956;9.154;2023-11-19T05:50:25;15.20;68.10
7077;DHT22;3579;48.956;9.154;2023-11-19T05:52:51;15.20;67.50
7077;DHT22;3579;48.956;9.154;2023-11-19T05:55:18;15.10;68.00
7077;DHT22;3579;48.956;9.154;2023-11-19T05:57:45;15.10;68.00
7077;DHT22;3579;48.956;9.154;2023-11-19T06:00:11;15.20;67.60
7077;DHT22;3579;48.956;9.154;2023-11-19T06:02:39;15.20;67.60
7077;DHT22;3579;48.956;9.154;2023-11-19T06:05:05;15.20;68.10
7077;DHT22;3579;48.956;9.154;2023-11-19T06:07:33;15.10;67.50
7077;DHT22;3579;48.956;9.154;2023-11-19T06:09:59;15.10;67.50
7077;DHT22;3579;48.956;9.154;2023-11-19T06:12:25;15.10;67.40
7077;DHT22;3579;48.956;9.154;2023-11-19T06:14:53;15.10;67.40
7077;DHT22;3579;48.956;9.154;2023-11-19T06:19:45;15.10;67.40
7077;DHT22;3579;48.956;9.154;2023-11-19T06:22:11;15.10;67.40
7077;DHT22;3579;48.956;9.154;2023-11-19T06:24:37;19.40;71.90
7077;DHT22;3579;48.956;9.154;2023-11-19T06:27:03;15.10;67.40
7077;DHT22;3579;48.956;9.154;2023-11-19T06:29:30;15.10;67.40
7077;DHT22;3579;48.956;9.154;2023-11-19T06:31:56;15.10;67.40
7077;DHT22;3579;48.956;9.154;2023-11-19T06:34:22;15.10;67.40
7077;DHT22;3579;48.956;9.154;2023-11-19T06:36:49;15.10;67.40
7077;DHT22;3579;48.956;9.154;2023-11-19T06:39:14;15.10;67.40
7077;DHT22;3579;48.956;9.154;2023-11-19T06:41:46;15.10;67.40
7077;DHT22;3579;48.956;9.154;2023-11-19T06:44:13;15.20;67.50
7077;DHT22;3579;48.956;9.154;2023-11-19T06:46:39;15.10;67.40
7077;DHT22;3579;48.956;9.154;2023-11-19T06:49:05;15.10;67.40
7077;DHT22;3579;48.956;9.154;2023-11-19T06:51:34;15.20;67.50
7077;DHT22;3579;48.956;9.154;2023-11-19T06:54:00;15.10;67.40
7077;DHT22;3579;48.956;9.154;2023-11-19T06:56:26;15.20;67.50
7077;DHT22;3579;48.956;9.154;2023-11-19T06:58:53;15.10;67.40
7077;DHT22;3579;48.956;9.154;2023-11-19T07:01:19;15.10;67.40
7077;DHT22;3579;48.956;9.154;2023-11-19T07:03:46;15.20;67.50
7077;DHT22;3579;48.956;9.154;2023-11-19T07:06:12;15.20;67.50
7077;DHT22;3579;48.956;9.154;2023-11-19T07:08:41;15.10;67.40
7077;DHT22;3579;48.956;9.154;2023-11-19T07:11:11;15.10;67.40
7077;DHT22;3579;48.956;9.154;2023-11-19T07:13:38;15.10;67.40
7077;DHT22;3579;48.956;9.154;2023-11-19T07:16:04;15.20;67.50
7077;DHT22;3579;48.956;9.154;2023-11-19T07:18:30;15.10;67.40
7077;DHT22;3579;48.956;9.154;2023-11-19T07:20:58;15.20;67.40
7077;DHT22;3579;48.956;9.154;2023-11-19T07:23:25;15.10;67.30
7077;DHT22;3579;48.956;9.154;2023-11-19T07:25:51;15.10;67.30
7077;DHT22;3579;48.956;9.154;2023-11-19T07:30:45;15.10;67.30
7077;DHT22;3579;48.956;9.154;2023-11-19T07:33:12;15.10;67.30
7077;DHT22;3579;48.956;9.154;2023-11-19T07:35:39;15.10;67.30
7077;DHT22;3579;48.956;9.154;2023-11-19T07:38:08;15.10;67.30
7077;DHT22;3579;48.956;9.154;2023-11-19T07:40:34;15.20;67.40
7077;DHT22;3579;48.956;9.154;2023-11-19T07:45:26;15.10;67.30
7077;DHT22;3579;48.956;9.154;2023-11-19T07:47:53;15.10;67.30
7077;DHT22;3579;48.956;9.154;2023-11-19T07:52:47;15.20;67.40
7077;DHT22;3579;48.956;9.154;2023-11-19T07:55:13;15.20;67.40
7077;DHT22;3579;48.956;9.154;2023-11-19T07:57:39;15.20;67.40
7077;DHT22;3579;48.956;9.154;2023-11-19T08:00:05;15.10;67.30
7077;DHT22;3579;48.956;9.154;2023-11-19T08:02:32;15.20;67.40
7077;DHT22;3579;48.956;9.154;2023-11-19T08:04:58;15.20;67.30
7077;DHT22;3579;48.956;9.154;2023-11-19T08:07:24;15.20;67.30
7077;DHT22;3579;48.956;9.154;2023-11-19T08:09:50;15.20;67.30
7077;DHT22;3579;48.956;9.154;2023-11-19T08:12:16;15.20;67.30
7077;DHT22;3579;48.956;9.154;2023-11-19T08:14:43;15.20;67.30
7077;DHT22;3579;48.956;9.154;2023-11-19T08:17:10;15.20;67.30
7077;DHT22;3579;48.956;9.154;2023-11-19T08:19:36;15.20;67.20
7077;DHT22;3579;48.956;9.154;2023-11-19T08:22:02;15.20;67.20
7077;DHT22;3579;48.956;9.154;2023-11-19T08:24:28;15.20;67.20
7077;DHT22;3579;48.956;9.154;2023-11-19T08:26:54;15.20;67.20
7077;DHT22;3579;48.956;9.154;2023-11-19T08:29:20;15.20;67.10
7077;DHT22;3579;48.956;9.154;2023-11-19T08:31:47;15.30;67.20
7077;DHT22;3579;48.956;9.154;2023-11-19T08:34:13;15.30;67.20
7077;DHT22;3579;48.956;9.154;2023-11-19T08:39:05;15.20;67.00
7077;DHT22;3579;48.956;9.154;2023-11-19T08:41:31;15.30;67.20
7077;DHT22;3579;48.956;9.154;2023-11-19T08:43:57;15.30;67.10
7077;DHT22;3579;48.956;9.154;2023-11-19T08:46:23;15.30;67.10
7077;DHT22;3579;48.956;9.154;2023-11-19T08:48:51;15.30;67.10
7077;DHT22;3579;48.956;9.154;2023-11-19T08:51:17;15.30;67.10
7077;DHT22;3579;48.956;9.154;2023-11-19T08:53:43;15.30;67.00
7077;DHT22;3579;48.956;9.154;2023-11-19T08:56:09;15.30;67.00
7077;DHT22;3579;48.956;9.154;2023-11-19T08:58:35;15.40;67.00
7077;DHT22;3579;48.956;9.154;2023-11-19T09:01:01;15.40;66.90
7077;DHT22;3579;48.956;9.154;2023-11-19T09:03:27;15.50;66.70
7077;DHT22;3579;48.956;9.154;2023-11-19T09:05:53;15.60;66.70
7077;DHT22;3579;48.956;9.154;2023-11-19T09:08:19;15.60;66.50
7077;DHT22;3579;48.956;9.154;2023-11-19T09:10:45;15.60;66.50
7077;DHT22;3579;48.956;9.154;2023-11-19T09:13:11;15.60;67.00
7077;DHT22;3579;48.956;9.154;2023-11-19T09:15:38;15.60;66.50
7077;DHT22;3579;48.956;9.154;2023-11-19T09:18:04;15.60;66.40
7077;DHT22;3579;48.956;9.154;2023-11-19T09:20:30;15.60;66.40
7077;DHT22;3579;48.956;9.154;2023-11-19T09:23:03;15.60;66.90
7077;DHT22;3579;48.956;9.154;2023-11-19T09:25:29;15.60;66.40
7077;DHT22;3579;48.956;9.154;2023-11-19T09:27:55;15.60;66.40
7077;DHT22;3579;48.956;9.154;2023-11-19T09:30:21;15.60;66.40
7077;DHT22;3579;48.956;9.154;2023-11-19T09:32:48;15.60;66.40
7077;DHT22;3579;48.956;9.154;2023-11-19T09:35:14;15.60;66.40
7077;DHT22;3579;48.956;9.154;2023-11-19T09:37:43;15.60;66.40
7077;DHT22;3579;48.956;9.154;2023-11-19T09:40:09;15.60;66.50
7077;DHT22;3579;48.956;9.154;2023-11-19T09:42:44;15.60;66.50
7077;DHT22;3579;48.956;9.154;2023-11-19T09:45:15;15.60;66.40
7077;DHT22;3579;48.956;9.154;2023-11-19T09:47:44;15.60;66.40
7077;DHT22;3579;48.956;9.154;2023-11-19T09:50:16;15.70;66.30
7077;DHT22;3579;48.956;9.154;2023-11-19T09:52:45;15.80;66.20
7077;DHT22;3579;48.956;9.154;2023-11-19T09:55:11;15.80;66.00
7077;DHT22;3579;48.956;9.154;2023-11-19T09:57:41;15.80;66.00
7077;DHT22;3579;48.956;9.154;2023-11-19T10:00:10;15.80;66.50
7077;DHT22;3579;48.956;9.154;2023-11-19T10:02:39;15.90;65.90
7077;DHT22;3579;48.956;9.154;2023-11-19T10:05:08;15.90;65.80
7077;DHT22;3579;48.956;9.154;2023-11-19T10:07:34;16.00;65.90
7077;DHT22;3579;48.956;9.154;2023-11-19T10:10:01;16.00;65.80
7077;DHT22;3579;48.956;9.154;2023-11-19T10:12:30;16.00;65.70
7077;DHT22;3579;48.956;9.154;2023-11-19T10:14:57;16.00;65.70
7077;DHT22;3579;48.956;9.154;2023-11-19T10:17:28;16.10;65.60
7077;DHT22;3579;48.956;9.154;2023-11-19T10:19:57;16.00;65.50
7077;DHT22;3579;48.956;9.154;2023-11-19T10:22:23;16.10;65.60
7077;DHT22;3579;48.956;9.154;2023-11-19T10:24:52;16.00;65.40
7077;DHT22;3579;48.956;9.154;2023-11-19T10:27:18;16.10;65.50
7077;DHT22;3579;48.956;9.154;2023-11-19T10:29:47;16.10;65.50
7077;DHT22;3579;48.956;9.154;2023-11-19T10:32:14;16.10;65.50
7077;DHT22;3579;48.956;9.154;2023-11-19T10:34:43;16.10;65.50
7077;DHT22;3579;48.956;9.154;2023-11-19T10:37:13;16.10;65.40
7077;DHT22;3579;48.956;9.154;2023-11-19T10:39:53;16.10;66.00
7077;DHT22;3579;48.956;9.154;2023-11-19T10:42:22;16.20;65.40
7077;DHT22;3579;48.956;9.154;2023-11-19T10:44:49;16.20;65.30
7077;DHT22;3579;48.956;9.154;2023-11-19T10:47:15;16.20;65.20
7077;DHT22;3579;48.956;9.154;2023-11-19T10:49:45;16.20;65.80
7077;DHT22;3579;48.956;9.154;2023-11-19T10:52:18;16.20;65.20
7077;DHT22;3579;48.956;9.154;2023-11-19T10:54:50;16.30;65.20
7077;DHT22;3579;48.956;9.154;2023-11-19T10:57:20;16.30;65.10
7077;DHT22;3579;48.956;9.154;2023-11-19T10:59:52;16.30;65.00
7077;DHT22;3579;48.956;9.154;2023-11-19T11:02:24;19.90;68.80
7077;DHT22;3579;48.956;9.154;2023-11-19T11:04:51;16.30;65.00
7077;DHT22;3579;48.956;9.154;2023-11-19T11:07:21;16.30;65.50
7077;DHT22;3579;48.956;9.154;2023-11-19T11:09:49;16.40;65.60
7077;DHT22;3579;48.956;9.154;2023-11-19T11:12:15;16.40;65.00
7077;DHT22;3579;48.956;9.154;2023-11-19T11:14:44;16.40;65.00
7077;DHT22;3579;48.956;9.154;2023-11-19T11:17:12;16.40;65.00
7077;DHT22;3579;48.956;9.154;2023-11-19T11:19:42;16.40;65.60
7077;DHT22;3579;48.956;9.154;2023-11-19T11:22:09;16.40;64.90
7077;DHT22;3579;48.956;9.154;2023-11-19T11:27:35;16.40;64.90
7077;DHT22;3579;48.956;9.154;2023-11-19T11:30:31;16.50;65.00
7077;DHT22;3579;48.956;9.154;2023-11-19T11:35:59;16.50;65.50
7077;DHT22;3579;48.956;9.154;2023-11-19T11:38:28;16.50;64.90
7077;DHT22;3579;48.956;9.154;2023-11-19T11:41:15;16.40;65.40
7077;DHT22;3579;48.956;9.154;2023-11-19T11:43:52;16.50;64.80
7077;DHT22;3579;48.956;9.154;2023-11-19T11:49:04;16.50;64.90
7077;DHT22;3579;48.956;9.154;2023-11-19T11:54:26;16.50;64.80
7077;DHT22;3579;48.956;9.154;2023-11-19T11:57:12;16.50;64.80
7077;DHT22;3579;48.956;9.154;2023-11-19T12:02:21;16.50;64.80
7077;DHT22;3579;48.956;9.154;2023-11-19T12:04:50;16.50;64.70
7077;DHT22;3579;48.956;9.154;2023-11-19T12:07:19;16.50;64.80
7077;DHT22;3579;48.956;9.154;2023-11-19T12:10:12;16.50;64.80
7077;DHT22;3579;48.956;9.154;2023-11-19T12:12:37;16.50;65.30
7077;DHT22;3579;48.956;9.154;2023-11-19T12:15:07;16.60;65.40
7077;DHT22;3579;48.956;9.154;2023-11-19T12:17:50;16.50;64.80
7077;DHT22;3579;48.956;9.154;2023-11-19T12:20:19;16.50;64.80
7077;DHT22;3579;48.956;9.154;2023-11-19T12:22:46;16.50;65.30
7077;DHT22;3579;48.956;9.154;2023-11-19T12:25:15;16.50;64.80
7077;DHT22;3579;48.956;9.154;2023-11-19T12:27:44;16.50;65.30
7077;DHT22;3579;48.956;9.154;2023-11-19T12:30:10;16.50;64.80
7077;DHT22;3579;48.956;9.154;2023-11-19T12:32:41;16.50;64.80
7077;DHT22;3579;48.956;9.154;2023-11-19T12:35:08;16.50;64.80
7077;DHT22;3579;48.956;9.154;2023-11-19T12:37:47;16.50;64.80
7077;DHT22;3579;48.956;9.154;2023-11-19T12:40:21;16.50;64.80
7077;DHT22;3579;48.956;9.154;2023-11-19T12:42:52;16.60;65.40
7077;DHT22;3579;48.956;9.154;2023-11-19T12:45:19;16.50;64.80
7077;DHT22;3579;48.956;9.154;2023-11-19T12:47:46;16.50;64.80
7077;DHT22;3579;48.956;9.154;2023-11-19T12:50:13;16.50;64.90
7077;DHT22;3579;48.956;9.154;2023-11-19T12:52:39;16.50;65.40
7077;DHT22;3579;48.956;9.154;2023-11-19T12:55:30;16.60;65.10
7077;DHT22;3579;48.956;9.154;2023-11-19T12:57:56;16.60;65.10
7077;DHT22;3579;48.956;9.154;2023-11-19T13:00:25;16.60;65.10
7077;DHT22;3579;48.956;9.154;2023-11-19T13:02:52;16.60;65.20
7077;DHT22;3579;48.956;9.154;2023-11-19T13:05:23;16.60;65.80
7077;DHT22;3579;48.956;9.154;2023-11-19T13:07:49;16.60;65.80
7077;DHT22;3579;48.956;9.154;2023-11-19T13:10:15;16.60;65.20
7077;DHT22;3579;48.956;9.154;2023-11-19T13:12:41;16.60;65.30
7077;DHT22;3579;48.956;9.154;2023-11-19T13:15:23;16.60;65.80
7077;DHT22;3579;48.956;9.154;2023-11-19T13:17:50;16.60;65.30
7077;DHT22;3579;48.956;9.154;2023-11-19T13:20:16;16.60;65.90
7077;DHT22;3579;48.956;9.154;2023-11-19T13:23:03;16.60;65.30
7077;DHT22;3579;48.956;9.154;2023-11-19T13:25:30;16.60;65.30
7077;DHT22;3579;48.956;9.154;2023-11-19T13:27:57;16.60;65.30
7077;DHT22;3579;48.956;9.154;2023-11-19T13:30:24;16.60;65.40
7077;DHT22;3579;48.956;9.154;2023-11-19T13:32:50;16.60;65.40
7077;DHT22;3579;48.956;9.154;2023-11-19T13:35:17;16.60;65.40
7077;DHT22;3579;48.956;9.154;2023-11-19T13:37:44;16.60;65.50
7077;DHT22;3579;48.956;9.154;2023-11-19T13:40:11;16.60;65.50
7077;DHT22;3579;48.956;9.154;2023-11-19T13:42:40;16.60;65.50
7077;DHT22;3579;48.956;9.154;2023-11-19T13:45:16;16.60;65.50
7077;DHT22;3579;48.956;9.154;2023-11-19T13:47:45;16.60;65.50
7077;DHT22;3579;48.956;9.154;2023-11-19T13:50:13;16.60;65.50
7077;DHT22;3579;48.956;9.154;2023-11-19T13:52:40;16.60;65.50
7077;DHT22;3579;48.956;9.154;2023-11-19T13:55:11;16.60;65.60
7077;DHT22;3579;48.956;9.154;2023-11-19T13:57:39;16.60;65.50
7077;DHT22;3579;48.956;9.154;2023-11-19T14:00:10;16.60;65.60
7077;DHT22;3579;48.956;9.154;2023-11-19T14:02:39;16.60;66.10
7077;DHT22;3579;48.956;9.154;2023-11-19T14:05:07;16.60;66.50
7077;DHT22;3579;48.956;9.154;2023-11-19T14:07:33;16.60;66.20
7077;DHT22;3579;48.956;9.154;2023-11-19T14:09:59;16.60;65.60
7077;DHT22;3579;48.956;9.154;2023-11-19T14:12:25;16.60;65.60
7077;DHT22;3579;48.956;9.154;2023-11-19T14:14:51;16.60;66.20
7077;DHT22;3579;48.956;9.154;2023-11-19T14:17:17;16.60;65.70
7077;DHT22;3579;48.956;9.154;2023-11-19T14:19:44;16.60;66.20
7077;DHT22;3579;48.956;9.154;2023-11-19T14:22:10;16.60;65.70
7077;DHT22;3579;48.956;9.154;2023-11-19T14:24:37;16.60;65.70
7077;DHT22;3579;48.956;9.154;2023-11-19T14:27:03;16.60;66.30
7077;DHT22;3579;48.956;9.154;2023-11-19T14:29:30;16.60;65.80
7077;DHT22;3579;48.956;9.154;2023-11-19T14:31:56;16.60;66.30
7077;DHT22;3579;48.956;9.154;2023-11-19T14:34:22;16.60;66.30
7077;DHT22;3579;48.956;9.154;2023-11-19T14:36:48;16.60;65.80
7077;DHT22;3579;48.956;9.154;2023-11-19T14:39:16;16.60;65.80
7077;DHT22;3579;48.956;9.154;2023-11-19T14:41:43;16.60;65.90
7077;DHT22;3579;48.956;9.154;2023-11-19T14:44:10;16.60;65.90
7077;DHT22;3579;48.956;9.154;2023-11-19T14:46:36;16.60;65.90
7077;DHT22;3579;48.956;9.154;2023-11-19T14:49:02;16.60;65.90
7077;DHT22;3579;48.956;9.154;2023-11-19T14:51:30;16.60;66.50
7077;DHT22;3579;48.956;9.154;2023-11-19T14:53:56;16.60;65.90
7077;DHT22;3579;48.956;9.154;2023-11-19T14:56:22;16.60;65.90
7077;DHT22;3579;48.956;9.154;2023-11-19T14:58:48;16.60;66.00
7077;DHT22;3579;48.956;9.154;2023-11-19T15:01:16;16.60;66.50
7077;DHT22;3579;48.956;9.154;2023-11-19T15:03:44;16.60;66.50
7077;DHT22;3579;48.956;9.154;2023-11-19T15:06:10;16.60;66.00
7077;DHT22;3579;48.956;9.154;2023-11-19T15:08:37;16.60;66.60
7077;DHT22;3579;48.956;9.154;2023-11-19T15:11:03;16.50;65.90
7077;DHT22;3579;48.956;9.154;2023-11-19T15:13:31;16.50;66.00
7077;DHT22;3579;48.956;9.154;2023-11-19T15:15:58;16.50;66.00
7077;DHT22;3579;48.956;9.154;2023-11-19T15:18:24;16.50;66.00
7077;DHT22;3579;48.956;9.154;2023-11-19T15:20:50;16.50;66.00
7077;DHT22;3579;48.956;9.154;2023-11-19T15:23:16;16.60;66.10
7077;DHT22;3579;48.956;9.154;2023-11-19T15:25:42;16.50;66.00
7077;DHT22;3579;48.956;9.154;2023-11-19T15:28:08;16.50;66.10
7077;DHT22;3579;48.956;9.154;2023-11-19T15:30:35;16.50;66.60
7077;DHT22;3579;48.956;9.154;2023-11-19T15:33:02;16.40;66.00
7077;DHT22;3579;48.956;9.154;2023-11-19T15:35:28;16.50;66.60
7077;DHT22;3579;48.956;9.154;2023-11-19T15:37:54;16.50;66.70
7077;DHT22;3579;48.956;9.154;2023-11-19T15:40:22;16.50;66.20
7077;DHT22;3579;48.956;9.154;2023-11-19T15:42:48;16.50;66.70
7077;DHT22;3579;48.956;9.154;2023-11-19T15:45:14;16.50;66.20
7077;DHT22;3579;48.956;9.154;2023-11-19T15:47:42;16.40;66.10
7077;DHT22;3579;48.956;9.154;2023-11-19T15:50:08;16.40;66.20
7077;DHT22;3579;48.956;9.154;2023-11-19T15:52:35;16.50;66.30
7077;DHT22;3579;48.956;9.154;2023-11-19T15:55:01;16.40;66.20
7077;DHT22;3579;48.956;9.154;2023-11-19T15:57:28;16.40;66.20
7077;DHT22;3579;48.956;9.154;2023-11-19T15:59:54;16.40;66.20
7077;DHT22;3579;48.956;9.154;2023-11-19T16:02:23;16.40;66.20
7077;DHT22;3579;48.956;9.154;2023-11-19T16:04:49;16.40;66.30
7077;DHT22;3579;48.956;9.154;2023-11-19T16:07:16;16.30;66.20
7077;DHT22;3579;48.956;9.154;2023-11-19T16:09:42;16.30;66.70
7077;DHT22;3579;48.956;9.154;2023-11-19T16:12:09;16.40;66.30
7077;DHT22;3579;48.956;9.154;2023-11-19T16:14:36;16.40;66.30
7077;DHT22;3579;48.956;9.154;2023-11-19T16:17:02;16.30;66.30
7077;DHT22;3579;48.956;9.154;2023-11-19T16:19:28;16.40;66.40
7077;DHT22;3579;48.956;9.154;2023-11-19T16:21:54;16.30;66.30
7077;DHT22;3579;48.956;9.154;2023-11-19T16:24:20;16.30;66.30
7077;DHT22;3579;48.956;9.154;2023-11-19T16:26:46;16.30;66.30
7077;DHT22;3579;48.956;9.154;2023-11-19T16:29:12;16.30;66.30
7077;DHT22;3579;48.956;9.154;2023-11-19T16:31:38;16.40;66.40
7077;DHT22;3579;48.956;9.154;2023-11-19T16:34:08;16.30;66.80
7077;DHT22;3579;48.956;9.154;2023-11-19T16:36:34;16.30;66.90
7077;DHT22;3579;48.956;9.154;2023-11-19T16:39:01;16.30;66.90